sensor_id;sensor_type;location;lat;lon;timestamp;pressure;altitude;pressure_sealevel;temperature;humidity
78121;BME280;67585;44.802;10.332;2023-06-10T00:00:41;100604.69;;;23.60;63.03
78121;BME280;67585;44.802;10.332;2023-06-10T00:03:07;100604.25;;;23.45;62.72
78121;BME280;67585;44.802;10.332;2023-06-10T00:05:32;100601.16;;;23.47;62.42
78121;BME280;67585;44.802;10.332;2023-06-10T00:08:00;100597.72;;;23.50;61.80
78121;BME280;67585;44.802;10.332;2023-06-10T00:10:26;100611.56;;;23.54;60.69
78121;BME280;67585;44.802;10.332;2023-06-10T00:12:52;100602.84;;;23.52;60.36
78121;BME280;67585;44.802;10.332;2023-06-10T00:15:17;100607.72;;;23.42;60.28
78121;BME280;67585;44.802;10.332;2023-06-10T00:17:43;100604.75;;;23.35;60.81
78121;BME280;67585;44.802;10.332;2023-06-10T00:20:09;100606.78;;;23.38;59.77
78121;BME280;67585;44.802;10.332;2023-06-10T00:22:37;100606.09;;;23.41;59.57
78121;BME280;67585;44.802;10.332;2023-06-10T00:25:05;100594.63;;;23.39;59.33
78121;BME280;67585;44.802;10.332;2023-06-10T00:27:31;100596.50;;;23.35;59.01
78121;BME280;67585;44.802;10.332;2023-06-10T00:30:02;100598.31;;;23.43;58.75
78121;BME280;67585;44.802;10.332;2023-06-10T00:32:29;100597.50;;;23.43;59.06
78121;BME280;67585;44.802;10.332;2023-06-10T00:34:55;100592.03;;;23.31;58.80
78121;BME280;67585;44.802;10.332;2023-06-10T00:37:20;100602.09;;;23.39;59.02
78121;BME280;67585;44.802;10.332;2023-06-10T00:39:45;100592.00;;;23.43;59.15
78121;BME280;67585;44.802;10.332;2023-06-10T00:42:11;100596.72;;;23.42;58.00
78121;BME280;67585;44.802;10.332;2023-06-10T00:44:36;100593.75;;;23.35;58.09
78121;BME280;67585;44.802;10.332;2023-06-10T00:47:02;100588.03;;;23.28;58.88
78121;BME280;67585;44.802;10.332;2023-06-10T00:49:28;100592.03;;;23.31;58.78
78121;BME280;67585;44.802;10.332;2023-06-10T00:51:54;100592.03;;;23.31;58.50
78121;BME280;67585;44.802;10.332;2023-06-10T00:54:20;100589.63;;;23.29;58.68
78121;BME280;67585;44.802;10.332;2023-06-10T00:56:46;100592.84;;;23.19;58.82
78121;BME280;67585;44.802;10.332;2023-06-10T00:59:12;100591.69;;;23.20;58.73
78121;BME280;67585;44.802;10.332;2023-06-10T01:01:40;100592.84;;;23.19;58.60
78121;BME280;67585;44.802;10.332;2023-06-10T01:04:06;100591.22;;;23.18;58.52
78121;BME280;67585;44.802;10.332;2023-06-10T01:07:08;100595.34;;;23.24;58.72
78121;BME280;67585;44.802;10.332;2023-06-10T01:14:49;100593.31;;;23.21;58.01
78121;BME280;67585;44.802;10.332;2023-06-10T01:17:16;100592.47;;;23.20;58.34
78121;BME280;67585;44.802;10.332;2023-06-10T01:19:43;100597.97;;;23.08;58.42
78121;BME280;67585;44.802;10.332;2023-06-10T01:22:09;100588.06;;;23.03;58.54
78121;BME280;67585;44.802;10.332;2023-06-10T01:24:36;100584.22;;;22.96;59.01
78121;BME280;67585;44.802;10.332;2023-06-10T01:27:05;100581.97;;;22.98;59.62
78121;BME280;67585;44.802;10.332;2023-06-10T01:29:46;100584.00;;;22.89;59.69
78121;BME280;67585;44.802;10.332;2023-06-10T01:32:26;100582.75;;;22.98;59.72
78121;BME280;67585;44.802;10.332;2023-06-10T01:34:55;100583.44;;;22.83;60.31
78121;BME280;67585;44.802;10.332;2023-06-10T01:37:24;100585.19;;;23.00;60.02
78121;BME280;67585;44.802;10.332;2023-06-10T01:39:51;100589.88;;;22.99;60.41
78121;BME280;67585;44.802;10.332;2023-06-10T01:42:17;100586.63;;;22.97;60.29
78121;BME280;67585;44.802;10.332;2023-06-10T01:44:43;100581.47;;;22.96;60.80
78121;BME280;67585;44.802;10.332;2023-06-10T01:47:09;100578.16;;;22.90;61.55
78121;BME280;67585;44.802;10.332;2023-06-10T01:49:34;100584.44;;;22.91;62.74
78121;BME280;67585;44.802;10.332;2023-06-10T01:52:00;100586.88;;;22.92;62.26
78121;BME280;67585;44.802;10.332;2023-06-10T01:54:25;100584.13;;;22.80;62.53
78121;BME280;67585;44.802;10.332;2023-06-10T01:56:51;100582.06;;;22.77;62.47
78121;BME280;67585;44.802;10.332;2023-06-10T01:59:16;100585.47;;;22.74;61.81
78121;BME280;67585;44.802;10.332;2023-06-10T02:01:42;100589.38;;;22.85;62.27
78121;BME280;67585;44.802;10.332;2023-06-10T02:04:07;100579.88;;;22.82;62.65
78121;BME280;67585;44.802;10.332;2023-06-10T02:06:32;100591.34;;;22.85;63.19
78121;BME280;67585;44.802;10.332;2023-06-10T02:08:59;100593.38;;;22.75;62.32
78121;BME280;67585;44.802;10.332;2023-06-10T02:11:24;100584.69;;;22.73;62.40
78121;BME280;67585;44.802;10.332;2023-06-10T02:13:52;100595.91;;;22.80;62.76
78121;BME280;67585;44.802;10.332;2023-06-10T02:16:17;100590.84;;;22.70;61.76
78121;BME280;67585;44.802;10.332;2023-06-10T02:18:43;100594.88;;;22.73;63.05
78121;BME280;67585;44.802;10.332;2023-06-10T02:21:09;100589.59;;;22.80;61.94
78121;BME280;67585;44.802;10.332;2023-06-10T02:23:34;100597.47;;;22.69;62.16
78121;BME280;67585;44.802;10.332;2023-06-10T02:26:00;100600.22;;;22.57;62.96
78121;BME280;67585;44.802;10.332;2023-06-10T02:28:25;100601.25;;;22.65;62.19
78121;BME280;67585;44.802;10.332;2023-06-10T02:30:51;100597.81;;;22.55;62.42
78121;BME280;67585;44.802;10.332;2023-06-10T02:33:17;100602.94;;;22.57;62.54
78121;BME280;67585;44.802;10.332;2023-06-10T02:35:43;100606.28;;;22.50;63.48
78121;BME280;67585;44.802;10.332;2023-06-10T02:38:08;100598.34;;;22.36;63.89
78121;BME280;67585;44.802;10.332;2023-06-10T02:40:33;100601.19;;;22.40;64.76
78121;BME280;67585;44.802;10.332;2023-06-10T02:42:59;100599.91;;;22.25;65.37
78121;BME280;67585;44.802;10.332;2023-06-10T02:45:25;100585.75;;;22.35;65.74
78121;BME280;67585;44.802;10.332;2023-06-10T02:47:50;100589.72;;;22.26;66.58
78121;BME280;67585;44.802;10.332;2023-06-10T02:50:16;100590.09;;;22.24;66.47
78121;BME280;67585;44.802;10.332;2023-06-10T02:52:41;100589.00;;;22.16;66.95
78121;BME280;67585;44.802;10.332;2023-06-10T02:55:07;100590.72;;;21.88;68.03
78121;BME280;67585;44.802;10.332;2023-06-10T02:57:32;100591.66;;;21.92;67.91
78121;BME280;67585;44.802;10.332;2023-06-10T02:59:58;100596.31;;;21.91;68.53
78121;BME280;67585;44.802;10.332;2023-06-10T03:02:24;100596.31;;;21.91;67.67
78121;BME280;67585;44.802;10.332;2023-06-10T03:04:54;100598.53;;;21.98;67.74
78121;BME280;67585;44.802;10.332;2023-06-10T03:07:20;100593.63;;;22.04;67.19
78121;BME280;67585;44.802;10.332;2023-06-10T03:09:46;100600.69;;;21.92;67.69
78121;BME280;67585;44.802;10.332;2023-06-10T03:12:11;100598.84;;;21.96;66.94
78121;BME280;67585;44.802;10.332;2023-06-10T03:14:36;100608.56;;;21.94;67.17
78121;BME280;67585;44.802;10.332;2023-06-10T03:17:04;100612.50;;;21.84;67.09
78121;BME280;67585;44.802;10.332;2023-06-10T03:19:30;100601.16;;;21.73;67.84
78121;BME280;67585;44.802;10.332;2023-06-10T03:22:10;100608.44;;;21.90;67.35
78121;BME280;67585;44.802;10.332;2023-06-10T03:24:37;100605.63;;;21.78;68.07
78121;BME280;67585;44.802;10.332;2023-06-10T03:27:08;100610.03;;;21.91;67.30
78121;BME280;67585;44.802;10.332;2023-06-10T03:29:35;100610.03;;;21.91;67.05
78121;BME280;67585;44.802;10.332;2023-06-10T03:32:00;100619.78;;;22.01;66.49
78121;BME280;67585;44.802;10.332;2023-06-10T03:34:26;100624.00;;;21.98;66.39
78121;BME280;67585;44.802;10.332;2023-06-10T03:36:52;100624.81;;;21.99;66.17
78121;BME280;67585;44.802;10.332;2023-06-10T03:39:17;100617.78;;;22.10;66.54
78121;BME280;67585;44.802;10.332;2023-06-10T03:41:42;100620.00;;;21.96;66.73
78121;BME280;67585;44.802;10.332;2023-06-10T03:46:33;100610.22;;;21.86;67.52
78121;BME280;67585;44.802;10.332;2023-06-10T03:48:58;100611.09;;;21.99;66.85
78121;BME280;67585;44.802;10.332;2023-06-10T03:51:26;100611.69;;;22.05;65.54
78121;BME280;67585;44.802;10.332;2023-06-10T03:53:52;100609.16;;;22.00;65.40
78121;BME280;67585;44.802;10.332;2023-06-10T03:56:17;100613.09;;;22.32;64.98
78121;BME280;67585;44.802;10.332;2023-06-10T03:58:42;100616.16;;;22.30;65.18
78121;BME280;67585;44.802;10.332;2023-06-10T04:01:08;100617.78;;;22.10;64.94
78121;BME280;67585;44.802;10.332;2023-06-10T04:03:33;100624.00;;;21.98;66.14
78121;BME280;67585;44.802;10.332;2023-06-10T04:05:58;100624.16;;;22.02;65.85
78121;BME280;67585;44.802;10.332;2023-06-10T04:08:24;100620.53;;;21.89;65.92
78121;BME280;67585;44.802;10.332;2023-06-10T04:10:49;100623.41;;;21.93;66.18
78121;BME280;67585;44.802;10.332;2023-06-10T04:13:15;100626.44;;;22.00;66.83
78121;BME280;67585;44.802;10.332;2023-06-10T04:15:40;100625.63;;;22.00;66.23
78121;BME280;67585;44.802;10.332;2023-06-10T04:18:06;100624.81;;;21.78;66.50
78121;BME280;67585;44.802;10.332;2023-06-10T04:20:31;100622.41;;;21.97;65.96
78121;BME280;67585;44.802;10.332;2023-06-10T04:22:57;100621.56;;;22.18;65.72
78121;BME280;67585;44.802;10.332;2023-06-10T04:25:22;100615.09;;;22.23;65.63
78121;BME280;67585;44.802;10.332;2023-06-10T04:27:49;100617.78;;;22.10;65.35
78121;BME280;67585;44.802;10.332;2023-06-10T04:30:15;100611.97;;;22.12;65.14
78121;BME280;67585;44.802;10.332;2023-06-10T04:32:41;100612.16;;;22.07;65.45
78121;BME280;67585;44.802;10.332;2023-06-10T04:35:07;100624.06;;;22.11;66.03
78121;BME280;67585;44.802;10.332;2023-06-10T04:37:32;100611.28;;;22.15;65.96
78121;BME280;67585;44.802;10.332;2023-06-10T04:39:58;100613.69;;;22.16;66.07
78121;BME280;67585;44.802;10.332;2023-06-10T04:42:24;100615.44;;;22.00;66.64
78121;BME280;67585;44.802;10.332;2023-06-10T04:44:50;100615.34;;;22.09;65.99
78121;BME280;67585;44.802;10.332;2023-06-10T04:47:15;100622.25;;;22.15;65.89
78121;BME280;67585;44.802;10.332;2023-06-10T04:49:42;100622.25;;;22.15;66.72
78121;BME280;67585;44.802;10.332;2023-06-10T04:52:07;100624.53;;;22.13;65.34
78121;BME280;67585;44.802;10.332;2023-06-10T04:54:33;100631.41;;;22.19;65.67
78121;BME280;67585;44.802;10.332;2023-06-10T04:56:58;100631.75;;;21.96;65.81
78121;BME280;67585;44.802;10.332;2023-06-10T04:59:25;100624.22;;;21.93;66.07
78121;BME280;67585;44.802;10.332;2023-06-10T05:01:50;100632.84;;;21.62;69.43
78121;BME280;67585;44.802;10.332;2023-06-10T05:04:16;100623.31;;;21.39;71.34
78121;BME280;67585;44.802;10.332;2023-06-10T05:06:41;100626.19;;;21.42;71.00
78121;BME280;67585;44.802;10.332;2023-06-10T05:09:06;100631.88;;;21.28;72.25
78121;BME280;67585;44.802;10.332;2023-06-10T05:11:32;100622.16;;;21.48;71.18
78121;BME280;67585;44.802;10.332;2023-06-10T05:13:57;100613.13;;;21.69;70.13
78121;BME280;67585;44.802;10.332;2023-06-10T05:16:22;100621.03;;;21.41;70.32
78121;BME280;67585;44.802;10.332;2023-06-10T05:18:48;100620.28;;;21.61;69.54
78121;BME280;67585;44.802;10.332;2023-06-10T05:21:13;100617.19;;;21.84;68.55
78121;BME280;67585;44.802;10.332;2023-06-10T05:23:39;100611.66;;;21.71;68.54
78121;BME280;67585;44.802;10.332;2023-06-10T05:26:04;100619.06;;;21.71;69.76
78121;BME280;67585;44.802;10.332;2023-06-10T05:28:29;100616.13;;;21.76;69.01
78121;BME280;67585;44.802;10.332;2023-06-10T05:30:55;100620.28;;;21.82;68.15
78121;BME280;67585;44.802;10.332;2023-06-10T05:33:20;100606.44;;;21.79;67.76
78121;BME280;67585;44.802;10.332;2023-06-10T05:35:46;100618.72;;;21.93;66.69
78121;BME280;67585;44.802;10.332;2023-06-10T05:38:11;100630.69;;;21.89;66.94
78121;BME280;67585;44.802;10.332;2023-06-10T05:40:36;100623.59;;;22.09;66.29
78121;BME280;67585;44.802;10.332;2023-06-10T05:43:02;100622.88;;;22.00;66.17
78121;BME280;67585;44.802;10.332;2023-06-10T05:45:27;100626.91;;;22.02;64.59
78121;BME280;67585;44.802;10.332;2023-06-10T05:47:52;100624.94;;;22.03;65.68
78121;BME280;67585;44.802;10.332;2023-06-10T05:50:18;100628.38;;;22.00;66.19
78121;BME280;67585;44.802;10.332;2023-06-10T05:52:43;100622.16;;;21.90;65.43
78121;BME280;67585;44.802;10.332;2023-06-10T05:55:09;100630.91;;;22.05;64.97
78121;BME280;67585;44.802;10.332;2023-06-10T05:57:35;100623.16;;;22.07;65.32
78121;BME280;67585;44.802;10.332;2023-06-10T06:00:00;100628.53;;;22.15;65.21
78121;BME280;67585;44.802;10.332;2023-06-10T06:02:26;100621.78;;;22.34;64.38
78121;BME280;67585;44.802;10.332;2023-06-10T06:04:51;100624.31;;;22.39;64.64
78121;BME280;67585;44.802;10.332;2023-06-10T06:07:16;100634.31;;;22.56;65.08
78121;BME280;67585;44.802;10.332;2023-06-10T06:09:42;100638.03;;;22.39;65.75
78121;BME280;67585;44.802;10.332;2023-06-10T06:12:08;100630.31;;;22.20;65.21
78121;BME280;67585;44.802;10.332;2023-06-10T06:14:37;100633.28;;;22.06;62.56
78121;BME280;67585;44.802;10.332;2023-06-10T06:17:03;100634.97;;;22.19;61.95
78121;BME280;67585;44.802;10.332;2023-06-10T06:19:28;100628.63;;;22.07;61.30
78121;BME280;67585;44.802;10.332;2023-06-10T06:21:54;100635.38;;;22.30;61.84
78121;BME280;67585;44.802;10.332;2023-06-10T06:24:19;100632.75;;;22.13;62.50
78121;BME280;67585;44.802;10.332;2023-06-10T06:26:45;100646.22;;;22.27;62.73
78121;BME280;67585;44.802;10.332;2023-06-10T06:29:10;100641.56;;;22.18;62.87
78121;BME280;67585;44.802;10.332;2023-06-10T06:31:35;100641.00;;;22.34;63.55
78121;BME280;67585;44.802;10.332;2023-06-10T06:34:01;100638.72;;;22.36;63.16
78121;BME280;67585;44.802;10.332;2023-06-10T06:36:27;100638.72;;;22.15;65.36
78121;BME280;67585;44.802;10.332;2023-06-10T06:38:52;100645.03;;;21.94;66.46
78121;BME280;67585;44.802;10.332;2023-06-10T06:41:18;100643.81;;;22.04;67.09
78121;BME280;67585;44.802;10.332;2023-06-10T06:43:43;100648.53;;;22.16;66.54
78121;BME280;67585;44.802;10.332;2023-06-10T06:46:09;100640.06;;;21.88;66.17
78121;BME280;67585;44.802;10.332;2023-06-10T06:48:34;100645.22;;;21.89;66.33
78121;BME280;67585;44.802;10.332;2023-06-10T06:50:59;100650.97;;;21.96;66.45
78121;BME280;67585;44.802;10.332;2023-06-10T06:53:25;100645.22;;;21.89;67.07
78121;BME280;67585;44.802;10.332;2023-06-10T06:55:50;100650.63;;;21.77;67.39
78121;BME280;67585;44.802;10.332;2023-06-10T06:58:16;100646.25;;;21.55;68.26
78121;BME280;67585;44.802;10.332;2023-06-10T07:00:41;100644.66;;;21.54;68.94
78121;BME280;67585;44.802;10.332;2023-06-10T07:03:07;100651.47;;;21.48;70.31
78121;BME280;67585;44.802;10.332;2023-06-10T07:05:32;100647.16;;;21.38;70.44
78121;BME280;67585;44.802;10.332;2023-06-10T07:07:57;100657.38;;;21.29;69.85
78121;BME280;67585;44.802;10.332;2023-06-10T07:10:24;100652.69;;;21.29;70.63
78121;BME280;67585;44.802;10.332;2023-06-10T07:12:50;100649.84;;;21.17;70.74
78121;BME280;67585;44.802;10.332;2023-06-10T07:15:15;100648.56;;;21.15;71.57
78121;BME280;67585;44.802;10.332;2023-06-10T07:17:41;100648.66;;;21.27;70.33
78121;BME280;67585;44.802;10.332;2023-06-10T07:20:06;100645.34;;;21.12;71.37
78121;BME280;67585;44.802;10.332;2023-06-10T07:22:32;100644.16;;;20.92;72.51
78121;BME280;67585;44.802;10.332;2023-06-10T07:24:57;100646.84;;;21.01;72.81
78121;BME280;67585;44.802;10.332;2023-06-10T07:27:23;100650.75;;;21.30;72.88
78121;BME280;67585;44.802;10.332;2023-06-10T07:29:48;100641.34;;;21.48;71.46
78121;BME280;67585;44.802;10.332;2023-06-10T07:32:14;100637.75;;;21.18;71.40
78121;BME280;67585;44.802;10.332;2023-06-10T07:34:39;100646.84;;;21.40;71.17
78121;BME280;67585;44.802;10.332;2023-06-10T07:37:05;100638.63;;;21.31;71.38
78121;BME280;67585;44.802;10.332;2023-06-10T07:39:30;100638.72;;;21.13;71.46
78121;BME280;67585;44.802;10.332;2023-06-10T07:41:56;100647.19;;;21.00;71.68
78121;BME280;67585;44.802;10.332;2023-06-10T07:44:23;100653.34;;;20.88;70.42
78121;BME280;67585;44.802;10.332;2023-06-10T07:46:48;100652.50;;;20.96;70.07
78121;BME280;67585;44.802;10.332;2023-06-10T07:49:14;100653.00;;;20.89;72.86
78121;BME280;67585;44.802;10.332;2023-06-10T07:51:40;100647.81;;;21.05;71.35
78121;BME280;67585;44.802;10.332;2023-06-10T07:54:05;100659.16;;;20.78;72.13
78121;BME280;67585;44.802;10.332;2023-06-10T07:56:30;100649.84;;;20.79;71.88
78121;BME280;67585;44.802;10.332;2023-06-10T07:58:56;100650.81;;;20.74;73.73
78121;BME280;67585;44.802;10.332;2023-06-10T08:01:22;100641.53;;;21.05;72.85
78121;BME280;67585;44.802;10.332;2023-06-10T08:03:48;100646.91;;;20.92;70.99
78121;BME280;67585;44.802;10.332;2023-06-10T08:06:13;100648.84;;;20.83;71.86
78121;BME280;67585;44.802;10.332;2023-06-10T08:08:39;100649.72;;;20.66;72.90
78121;BME280;67585;44.802;10.332;2023-06-10T08:11:08;100644.94;;;20.93;72.92
78121;BME280;67585;44.802;10.332;2023-06-10T08:13:33;100648.06;;;20.83;73.17
78121;BME280;67585;44.802;10.332;2023-06-10T08:15:59;100646.22;;;20.96;72.62
78121;BME280;67585;44.802;10.332;2023-06-10T08:18:24;100645.63;;;20.81;72.91
78121;BME280;67585;44.802;10.332;2023-06-10T08:20:49;100654.25;;;21.09;73.39
78121;BME280;67585;44.802;10.332;2023-06-10T08:23:15;100645.16;;;21.18;73.14
78121;BME280;67585;44.802;10.332;2023-06-10T08:25:40;100644.41;;;21.08;73.94
78121;BME280;67585;44.802;10.332;2023-06-10T08:28:06;100647.13;;;21.08;74.07
78121;BME280;67585;44.802;10.332;2023-06-10T08:30:31;100645.16;;;21.18;73.44
78121;BME280;67585;44.802;10.332;2023-06-10T08:32:56;100648.00;;;20.91;73.53
78121;BME280;67585;44.802;10.332;2023-06-10T08:35:22;100639.91;;;21.04;73.67
78121;BME280;67585;44.802;10.332;2023-06-10T08:37:47;100646.34;;;20.61;75.63
78121;BME280;67585;44.802;10.332;2023-06-10T08:40:13;100643.38;;;20.83;75.97
78121;BME280;67585;44.802;10.332;2023-06-10T08:43:06;100654.47;;;20.87;75.13
78121;BME280;67585;44.802;10.332;2023-06-10T08:45:34;100651.72;;;20.87;73.87
78121;BME280;67585;44.802;10.332;2023-06-10T08:48:02;100643.75;;;20.64;73.73
78121;BME280;67585;44.802;10.332;2023-06-10T08:50:35;100643.13;;;20.59;73.42
78121;BME280;67585;44.802;10.332;2023-06-10T08:53:06;100646.34;;;20.52;74.37
78121;BME280;67585;44.802;10.332;2023-06-10T08:55:33;100644.06;;;20.63;74.96
78121;BME280;67585;44.802;10.332;2023-06-10T08:58:01;100654.84;;;20.68;75.12
78121;BME280;67585;44.802;10.332;2023-06-10T09:00:26;100650.94;;;20.78;75.37
78121;BME280;67585;44.802;10.332;2023-06-10T09:02:52;100644.19;;;20.84;74.07
78121;BME280;67585;44.802;10.332;2023-06-10T09:05:18;100644.84;;;20.72;72.76
78121;BME280;67585;44.802;10.332;2023-06-10T09:07:45;100645.22;;;20.62;73.15
78121;BME280;67585;44.802;10.332;2023-06-10T09:10:11;100638.38;;;20.85;72.44
78121;BME280;67585;44.802;10.332;2023-06-10T09:12:37;100641.88;;;20.95;73.13
78121;BME280;67585;44.802;10.332;2023-06-10T09:15:06;100641.75;;;20.91;72.92
78121;BME280;67585;44.802;10.332;2023-06-10T09:17:32;100643.69;;;20.90;72.95
78121;BME280;67585;44.802;10.332;2023-06-10T09:19:59;100645.13;;;20.88;73.87
78121;BME280;67585;44.802;10.332;2023-06-10T09:22:24;100649.59;;;21.01;73.33
78121;BME280;67585;44.802;10.332;2023-06-10T09:25:01;100645.25;;;21.00;73.42
78121;BME280;67585;44.802;10.332;2023-06-10T09:27:29;100644.50;;;21.21;73.36
78121;BME280;67585;44.802;10.332;2023-06-10T09:29:55;100644.50;;;21.21;73.93
78121;BME280;67585;44.802;10.332;2023-06-10T09:32:21;100651.66;;;21.43;73.19
78121;BME280;67585;44.802;10.332;2023-06-10T09:34:47;100654.41;;;21.43;72.88
78121;BME280;67585;44.802;10.332;2023-06-10T09:37:13;100645.66;;;21.49;72.01
78121;BME280;67585;44.802;10.332;2023-06-10T09:39:44;100643.72;;;21.50;72.02
78121;BME280;67585;44.802;10.332;2023-06-10T09:42:17;100649.59;;;21.31;71.38
78121;BME280;67585;44.802;10.332;2023-06-10T09:44:49;100651.72;;;21.85;70.77
78121;BME280;67585;44.802;10.332;2023-06-10T09:47:20;100649.78;;;21.85;71.55
78121;BME280;67585;44.802;10.332;2023-06-10T09:49:46;100652.38;;;21.82;72.62
78121;BME280;67585;44.802;10.332;2023-06-10T09:52:12;100653.44;;;21.68;72.76
78121;BME280;67585;44.802;10.332;2023-06-10T09:54:37;100659.19;;;21.54;73.11
78121;BME280;67585;44.802;10.332;2023-06-10T09:57:07;100658.09;;;21.47;73.44
78121;BME280;67585;44.802;10.332;2023-06-10T09:59:37;100659.38;;;21.49;73.30
78121;BME280;67585;44.802;10.332;2023-06-10T10:02:03;100649.28;;;21.62;73.05
78121;BME280;67585;44.802;10.332;2023-06-10T10:04:29;100651.66;;;21.43;71.55
78121;BME280;67585;44.802;10.332;2023-06-10T10:06:55;100648.97;;;21.64;71.46
78121;BME280;67585;44.802;10.332;2023-06-10T10:09:20;100651.69;;;21.64;70.65
78121;BME280;67585;44.802;10.332;2023-06-10T10:11:45;100650.63;;;21.26;72.60
78121;BME280;67585;44.802;10.332;2023-06-10T10:14:13;100653.97;;;21.62;72.99
78121;BME280;67585;44.802;10.332;2023-06-10T10:16:41;100650.56;;;21.65;73.03
78121;BME280;67585;44.802;10.332;2023-06-10T10:19:28;100644.44;;;21.68;73.41
78121;BME280;67585;44.802;10.332;2023-06-10T10:22:01;100648.78;;;21.39;75.06
78121;BME280;67585;44.802;10.332;2023-06-10T10:24:39;100649.59;;;21.40;77.85
78121;BME280;67585;44.802;10.332;2023-06-10T10:27:44;100645.28;;;21.21;77.43
78121;BME280;67585;44.802;10.332;2023-06-10T10:30:10;100639.91;;;21.33;76.66
78121;BME280;67585;44.802;10.332;2023-06-10T10:32:59;100649.88;;;21.47;75.71
78121;BME280;67585;44.802;10.332;2023-06-10T10:35:26;100654.19;;;21.77;75.28
78121;BME280;67585;44.802;10.332;2023-06-10T10:37:53;100653.22;;;22.15;74.47
78121;BME280;67585;44.802;10.332;2023-06-10T10:40:22;100658.78;;;22.28;74.51
78121;BME280;67585;44.802;10.332;2023-06-10T10:42:49;100660.47;;;21.99;74.01
78121;BME280;67585;44.802;10.332;2023-06-10T10:45:14;100643.28;;;21.69;74.71
78121;BME280;67585;44.802;10.332;2023-06-10T10:47:41;100653.09;;;21.70;74.79
78121;BME280;67585;44.802;10.332;2023-06-10T10:50:14;100653.53;;;22.02;74.69
78121;BME280;67585;44.802;10.332;2023-06-10T10:53:07;100646.81;;;22.32;74.29
78121;BME280;67585;44.802;10.332;2023-06-10T10:55:33;100647.81;;;22.28;73.02
78121;BME280;67585;44.802;10.332;2023-06-10T10:58:06;100648.53;;;22.16;73.79
78121;BME280;67585;44.802;10.332;2023-06-10T11:00:33;100649.97;;;22.01;74.02
78121;BME280;67585;44.802;10.332;2023-06-10T11:03:13;100642.81;;;22.30;72.14
78121;BME280;67585;44.802;10.332;2023-06-10T11:05:42;100641.53;;;22.60;71.59
78121;BME280;67585;44.802;10.332;2023-06-10T11:08:10;100635.91;;;22.69;70.08
78121;BME280;67585;44.802;10.332;2023-06-10T11:10:38;100642.47;;;22.77;71.49
78121;BME280;67585;44.802;10.332;2023-06-10T11:13:09;100640.28;;;22.25;73.55
78121;BME280;67585;44.802;10.332;2023-06-10T11:15:40;100628.03;;;22.22;73.68
78121;BME280;67585;44.802;10.332;2023-06-10T11:23:09;100632.34;;;23.02;72.31
78121;BME280;67585;44.802;10.332;2023-06-10T11:25:38;100639.50;;;22.82;71.34
78121;BME280;67585;44.802;10.332;2023-06-10T11:28:17;100629.66;;;22.93;70.17
78121;BME280;67585;44.802;10.332;2023-06-10T11:30:42;100628.81;;;23.14;69.73
78121;BME280;67585;44.802;10.332;2023-06-10T11:33:08;100616.31;;;23.29;69.35
78121;BME280;67585;44.802;10.332;2023-06-10T11:35:33;100618.22;;;23.53;69.21
78121;BME280;67585;44.802;10.332;2023-06-10T11:37:59;100614.94;;;23.10;70.10
78121;BME280;67585;44.802;10.332;2023-06-10T11:40:24;100616.88;;;23.10;70.13
78121;BME280;67585;44.802;10.332;2023-06-10T11:42:51;100611.25;;;22.94;70.19
78121;BME280;67585;44.802;10.332;2023-06-10T11:45:19;100618.63;;;22.56;70.79
78121;BME280;67585;44.802;10.332;2023-06-10T11:48:00;100611.50;;;24.19;66.33
78121;BME280;67585;44.802;10.332;2023-06-10T11:50:32;100604.41;;;24.34;65.85
78121;BME280;67585;44.802;10.332;2023-06-10T11:52:58;100603.66;;;24.49;64.10
78121;BME280;67585;44.802;10.332;2023-06-10T11:55:41;100597.19;;;24.57;64.22
78121;BME280;67585;44.802;10.332;2023-06-10T11:58:22;100603.78;;;24.24;65.41
78121;BME280;67585;44.802;10.332;2023-06-10T12:00:48;100601.22;;;23.75;67.24
78121;BME280;67585;44.802;10.332;2023-06-10T12:03:13;100599.13;;;23.32;68.69
78121;BME280;67585;44.802;10.332;2023-06-10T12:05:39;100592.41;;;23.70;67.68
78121;BME280;67585;44.802;10.332;2023-06-10T12:08:08;100590.78;;;23.81;66.88
78121;BME280;67585;44.802;10.332;2023-06-10T12:10:41;100592.91;;;23.47;68.89
78121;BME280;67585;44.802;10.332;2023-06-10T12:13:10;100594.28;;;23.41;68.72
78121;BME280;67585;44.802;10.332;2023-06-10T12:15:35;100593.13;;;23.42;68.41
78121;BME280;67585;44.802;10.332;2023-06-10T12:18:02;100578.84;;;23.36;67.79
78121;BME280;67585;44.802;10.332;2023-06-10T12:20:32;100578.09;;;23.52;67.36
78121;BME280;67585;44.802;10.332;2023-06-10T12:23:09;100580.66;;;23.44;68.35
78121;BME280;67585;44.802;10.332;2023-06-10T12:25:35;100572.81;;;23.59;66.88
78121;BME280;67585;44.802;10.332;2023-06-10T12:28:02;100577.25;;;23.35;66.93
78121;BME280;67585;44.802;10.332;2023-06-10T12:30:28;100585.72;;;23.42;66.03
78121;BME280;67585;44.802;10.332;2023-06-10T12:32:54;100582.72;;;23.48;64.79
78121;BME280;67585;44.802;10.332;2023-06-10T12:35:22;100577.66;;;23.62;64.49
78121;BME280;67585;44.802;10.332;2023-06-10T12:38:01;100573.78;;;23.51;63.17
78121;BME280;67585;44.802;10.332;2023-06-10T12:40:31;100575.78;;;23.25;65.08
78121;BME280;67585;44.802;10.332;2023-06-10T12:42:57;100568.28;;;23.91;63.50
78121;BME280;67585;44.802;10.332;2023-06-10T12:45:30;100567.19;;;23.67;63.27
78121;BME280;67585;44.802;10.332;2023-06-10T12:50:32;100562.06;;;23.13;64.31
78121;BME280;67585;44.802;10.332;2023-06-10T12:52:58;100553.75;;;23.38;65.34
78121;BME280;67585;44.802;10.332;2023-06-10T12:55:24;100553.09;;;23.69;64.94